createdAt,value
2023-03-14T00:00:24.380Z,92.62
2023-03-14T00:02:50.805Z,92.52
2023-03-14T00:05:17.241Z,93.08
2023-03-14T00:07:43.673Z,93.19
2023-03-14T00:10:10.059Z,93.97
2023-03-14T00:12:36.472Z,93.06
2023-03-14T00:15:02.921Z,92.65
2023-03-14T00:17:29.364Z,93.80
2023-03-14T00:19:55.772Z,92.66
2023-03-14T00:22:22.218Z,94.09
2023-03-14T00:24:48.671Z,93.74
2023-03-14T00:27:15.112Z,93.99
2023-03-14T00:29:41.578Z,93.98
2023-03-14T00:32:08.117Z,94.56
2023-03-14T00:34:34.552Z,93.31
2023-03-14T00:37:01.630Z,93.31
2023-03-14T00:39:28.236Z,94.05
2023-03-14T00:41:54.902Z,94.70
2023-03-14T00:44:22.408Z,93.60
2023-03-14T00:46:48.977Z,94.08
2023-03-14T00:49:15.405Z,94.12
2023-03-14T00:51:41.887Z,94.25
2023-03-14T00:54:08.799Z,93.89
2023-03-14T00:56:35.240Z,94.59
2023-03-14T00:59:01.967Z,94.15
2023-03-14T01:01:28.477Z,94.04
2023-03-14T01:03:55.134Z,93.81
2023-03-14T01:06:22.738Z,94.61
2023-03-14T01:08:49.314Z,95.13
2023-03-14T01:11:15.903Z,93.92
2023-03-14T01:13:42.339Z,93.98
2023-03-14T01:16:08.847Z,93.71
2023-03-14T01:18:35.708Z,94.24
2023-03-14T01:21:03.280Z,94.25
2023-03-14T01:23:29.902Z,93.44
2023-03-14T01:25:58.498Z,95.08
2023-03-14T01:28:25.076Z,93.47
2023-03-14T01:30:51.654Z,94.37
2023-03-14T01:33:18.233Z,94.05
2023-03-14T01:51:07.525Z,94.29
2023-03-14T01:53:34.384Z,94.40
2023-03-14T01:56:01.028Z,94.31
2023-03-14T01:58:27.615Z,94.37
2023-03-14T02:00:54.207Z,93.74
2023-03-14T02:03:20.837Z,93.20
2023-03-14T02:05:48.379Z,93.24
2023-03-14T02:08:14.955Z,93.73
2023-03-14T02:10:41.561Z,93.84
2023-03-14T02:13:07.988Z,93.30
2023-03-14T02:15:35.757Z,93.39
2023-03-14T02:18:02.197Z,93.62
2023-03-14T02:20:28.689Z,93.71
2023-03-14T02:22:55.073Z,93.66
2023-03-14T02:25:21.499Z,92.92
2023-03-14T02:27:47.914Z,93.84
2023-03-14T02:30:14.364Z,91.98
2023-03-14T02:32:40.837Z,93.48
2023-03-14T02:35:07.268Z,93.03
2023-03-14T02:37:33.674Z,92.55
2023-03-14T02:40:00.048Z,93.42
2023-03-14T02:42:26.452Z,93.31
2023-03-14T02:44:52.866Z,93.01
2023-03-14T02:47:19.280Z,93.53
2023-03-14T02:49:45.666Z,93.45
2023-03-14T02:52:12.091Z,92.18
2023-03-14T02:54:38.535Z,92.89
2023-03-14T02:57:04.908Z,93.05
2023-03-14T02:59:31.321Z,93.05
2023-03-14T03:01:57.740Z,93.11
2023-03-14T03:04:24.163Z,93.54
2023-03-14T03:06:50.541Z,92.86
2023-03-14T03:09:16.927Z,92.81
2023-03-14T03:11:43.342Z,91.79
2023-03-14T03:14:09.745Z,92.57
2023-03-14T03:16:36.184Z,92.78
2023-03-14T03:19:02.639Z,93.22
2023-03-14T03:21:29.157Z,92.77
2023-03-14T03:23:55.556Z,93.18
2023-03-14T03:26:21.955Z,93.16
2023-03-14T03:28:48.361Z,93.19
2023-03-14T03:31:14.830Z,93.24
2023-03-14T03:33:41.251Z,92.97
2023-03-14T03:36:07.661Z,93.19
2023-03-14T03:38:34.132Z,92.96
2023-03-14T03:41:00.559Z,93.66
2023-03-14T03:43:26.980Z,93.75
2023-03-14T03:45:53.417Z,93.79
2023-03-14T03:48:19.824Z,93.58
2023-03-14T03:50:46.196Z,93.24
2023-03-14T03:53:15.575Z,93.14
2023-03-14T03:55:42.095Z,93.07
2023-03-14T03:58:08.470Z,93.16
2023-03-14T04:00:34.877Z,92.94
2023-03-14T04:03:01.282Z,93.74
2023-03-14T04:05:27.810Z,93.60
2023-03-14T04:07:54.214Z,92.31
2023-03-14T04:10:20.622Z,93.07
2023-03-14T04:12:47.016Z,93.72
2023-03-14T04:15:13.432Z,93.01
2023-03-14T04:17:39.836Z,93.00
2023-03-14T04:20:06.210Z,92.81
2023-03-14T04:22:32.669Z,92.84
2023-03-14T04:24:59.222Z,92.79
2023-03-14T04:27:25.634Z,92.81
2023-03-14T04:29:52.042Z,92.41
2023-03-14T04:32:18.560Z,91.67
2023-03-14T04:34:44.998Z,91.98
2023-03-14T04:37:11.374Z,91.70
2023-03-14T04:39:37.777Z,92.02
2023-03-14T04:42:05.372Z,91.04
2023-03-14T04:44:31.812Z,90.97
2023-03-14T04:46:58.274Z,90.93
2023-03-14T04:49:24.800Z,91.12
2023-03-14T04:51:51.167Z,92.67
2023-03-14T04:54:17.573Z,92.15
2023-03-14T04:56:44.011Z,91.47
2023-03-14T04:59:10.414Z,90.96
2023-03-14T05:01:36.876Z,91.33
2023-03-14T05:04:03.325Z,92.40
2023-03-14T05:06:29.712Z,90.41
2023-03-14T05:08:56.142Z,91.14
2023-03-14T05:11:22.577Z,90.50
2023-03-14T05:13:49.136Z,89.92
2023-03-14T05:16:15.551Z,91.12
2023-03-14T05:18:41.989Z,90.83
2023-03-14T05:21:08.381Z,89.12
2023-03-14T05:23:34.783Z,88.24
2023-03-14T05:26:01.188Z,89.51
2023-03-14T05:28:27.664Z,88.85
2023-03-14T05:30:54.037Z,87.79
2023-03-14T05:33:20.490Z,88.12
2023-03-14T05:35:46.927Z,87.50
2023-03-14T05:38:13.324Z,89.21
2023-03-14T05:40:39.750Z,87.92
2023-03-14T05:43:06.168Z,86.64
2023-03-14T05:45:34.594Z,87.41
2023-03-14T05:48:02.027Z,86.83
2023-03-14T05:50:28.454Z,87.88
2023-03-14T05:52:54.860Z,84.92
2023-03-14T05:55:21.283Z,85.92
2023-03-14T05:57:47.714Z,85.28
2023-03-14T06:00:14.106Z,85.45
2023-03-14T06:02:40.523Z,85.54
2023-03-14T06:05:06.907Z,86.53
2023-03-14T06:07:33.396Z,85.82
2023-03-14T06:09:59.790Z,85.92
2023-03-14T06:12:26.206Z,84.08
2023-03-14T06:14:52.619Z,85.92
2023-03-14T06:17:19.042Z,86.41
2023-03-14T06:19:45.437Z,86.30
2023-03-14T06:22:11.827Z,86.06
2023-03-14T06:24:38.244Z,86.91
2023-03-14T06:27:04.667Z,87.31
2023-03-14T06:29:31.058Z,87.43
2023-03-14T06:31:57.460Z,88.79
2023-03-14T06:34:23.835Z,89.12
2023-03-14T06:36:50.230Z,89.87
2023-03-14T06:39:16.662Z,89.54
2023-03-14T06:41:43.082Z,88.55
2023-03-14T06:44:09.638Z,89.67
2023-03-14T06:46:36.046Z,89.90
2023-03-14T06:49:02.427Z,88.46
2023-03-14T06:51:28.862Z,88.86
2023-03-14T06:53:55.233Z,89.62
2023-03-14T06:56:21.637Z,89.04
2023-03-14T06:58:50.256Z,89.14
2023-03-14T07:01:16.896Z,89.66
2023-03-14T07:03:43.299Z,89.53
2023-03-14T07:06:09.730Z,88.94
2023-03-14T07:08:36.107Z,88.46
2023-03-14T07:11:02.508Z,87.01
2023-03-14T07:13:28.899Z,87.91
2023-03-14T07:15:55.327Z,87.69
2023-03-14T07:18:21.713Z,87.70
2023-03-14T07:20:49.837Z,88.85
2023-03-14T07:23:17.721Z,86.70
2023-03-14T07:25:44.127Z,87.93
2023-03-14T07:28:10.491Z,86.87
2023-03-14T07:30:36.873Z,87.38
2023-03-14T07:33:03.340Z,88.51
2023-03-14T07:35:29.765Z,88.81
2023-03-14T07:37:56.176Z,88.44
2023-03-14T07:40:22.557Z,88.93
2023-03-14T07:42:48.952Z,89.08
2023-03-14T07:45:15.362Z,88.46
2023-03-14T07:47:41.771Z,88.55
2023-03-14T07:50:08.169Z,89.14
2023-03-14T07:52:34.552Z,89.36
2023-03-14T07:55:00.958Z,88.04
2023-03-14T07:57:27.387Z,89.37
2023-03-14T07:59:53.808Z,87.80
2023-03-14T08:02:20.239Z,88.83
2023-03-14T08:04:46.691Z,89.30
2023-03-14T08:07:13.069Z,87.65
2023-03-14T08:09:39.452Z,87.83
2023-03-14T08:12:05.820Z,88.56
2023-03-14T08:14:32.183Z,85.84
2023-03-14T08:16:58.581Z,88.50
2023-03-14T08:19:25.010Z,87.66
2023-03-14T08:21:51.439Z,88.33
2023-03-14T08:24:17.955Z,89.74
2023-03-14T08:26:44.363Z,89.51
2023-03-14T08:29:10.744Z,88.71
2023-03-14T08:31:37.254Z,89.81
2023-03-14T08:34:03.724Z,90.36
2023-03-14T08:36:30.190Z,90.77
2023-03-14T08:38:56.692Z,90.73
2023-03-14T08:41:23.131Z,90.88
2023-03-14T08:43:49.533Z,90.61
2023-03-14T08:46:15.921Z,90.65
2023-03-14T08:48:42.300Z,90.66
2023-03-14T08:51:08.697Z,91.54
2023-03-14T08:53:35.130Z,90.25
2023-03-14T08:56:01.526Z,89.82
2023-03-14T08:58:27.951Z,89.63
2023-03-14T09:00:54.353Z,89.33
2023-03-14T09:03:20.819Z,90.69
2023-03-14T09:05:47.261Z,90.78
2023-03-14T09:08:13.686Z,90.73
2023-03-14T09:10:40.093Z,91.08
2023-03-14T09:13:06.486Z,90.74
2023-03-14T09:15:32.918Z,90.62
2023-03-14T09:17:59.323Z,91.56
2023-03-14T09:20:25.747Z,92.30
2023-03-14T09:22:52.147Z,93.66
2023-03-14T09:25:18.591Z,92.48
2023-03-14T09:27:44.978Z,93.26
2023-03-14T09:30:11.399Z,92.87
2023-03-14T09:32:37.834Z,91.82
2023-03-14T09:35:04.282Z,92.84
2023-03-14T09:37:30.658Z,94.16
2023-03-14T09:39:57.083Z,92.88
2023-03-14T09:42:23.519Z,93.82
2023-03-14T09:44:49.920Z,93.18
2023-03-14T09:47:16.378Z,91.38
2023-03-14T09:49:42.776Z,92.61
2023-03-14T09:52:09.188Z,92.84
2023-03-14T09:54:35.571Z,92.05
2023-03-14T09:57:01.954Z,89.91
2023-03-14T09:59:28.389Z,93.02
2023-03-14T10:01:54.815Z,92.20
2023-03-14T10:04:21.242Z,92.50
2023-03-14T10:06:47.704Z,92.24
2023-03-14T10:09:14.134Z,91.75
2023-03-14T10:11:40.522Z,91.72
2023-03-14T10:14:06.943Z,91.89
2023-03-14T10:16:33.317Z,91.48
2023-03-14T10:18:59.746Z,90.15
2023-03-14T10:21:26.131Z,89.87
2023-03-14T10:23:52.511Z,88.48
2023-03-14T10:26:18.915Z,91.60
2023-03-14T10:28:45.321Z,91.23
2023-03-14T10:31:11.870Z,91.06
2023-03-14T10:33:38.287Z,91.97
2023-03-14T10:36:04.793Z,92.36
2023-03-14T10:38:31.225Z,91.09
2023-03-14T10:40:57.612Z,88.28
2023-03-14T10:43:24.031Z,89.64
2023-03-14T10:45:50.438Z,92.24
2023-03-14T10:48:16.827Z,92.90
2023-03-14T10:50:43.273Z,93.18
2023-03-14T10:53:09.689Z,91.29
2023-03-14T10:55:36.616Z,92.07
2023-03-14T10:58:03.223Z,89.98
2023-03-14T11:00:30.811Z,89.33
2023-03-14T11:02:57.374Z,90.05
2023-03-14T11:05:23.820Z,89.49
2023-03-14T11:07:52.420Z,89.70
2023-03-14T11:10:19.151Z,89.26
2023-03-14T11:12:46.758Z,88.34
2023-03-14T11:15:13.371Z,86.95
2023-03-14T11:17:39.937Z,83.85
2023-03-14T11:20:06.352Z,83.78
2023-03-14T11:22:32.735Z,82.31
2023-03-14T11:24:59.125Z,84.69
2023-03-14T11:27:25.543Z,81.50
2023-03-14T11:29:51.950Z,84.01
2023-03-14T11:32:18.349Z,81.89
2023-03-14T11:34:44.774Z,81.05
2023-03-14T11:37:11.156Z,83.17
2023-03-14T11:39:37.624Z,83.36
2023-03-14T11:42:05.725Z,82.97
2023-03-14T11:44:32.245Z,80.81
2023-03-14T11:47:00.565Z,81.07
2023-03-14T11:49:27.145Z,77.16
2023-03-14T11:51:53.539Z,77.68
2023-03-14T11:54:19.949Z,77.77
2023-03-14T11:56:46.597Z,76.95
2023-03-14T11:59:13.000Z,75.07
2023-03-14T12:01:39.724Z,74.44
2023-03-14T12:04:07.233Z,74.26
2023-03-14T12:06:33.676Z,74.23
2023-03-14T12:09:00.373Z,72.59
2023-03-14T12:11:28.982Z,71.88
2023-03-14T12:13:56.548Z,70.57
2023-03-14T12:16:23.152Z,71.80
2023-03-14T12:18:49.604Z,70.52
2023-03-14T12:21:16.021Z,69.74
2023-03-14T12:23:42.999Z,71.79
2023-03-14T12:26:09.757Z,68.78
2023-03-14T12:28:36.261Z,69.47
2023-03-14T12:31:02.633Z,69.21
2023-03-14T12:33:29.010Z,67.22
2023-03-14T12:35:55.478Z,67.35
2023-03-14T12:38:22.136Z,68.38
2023-03-14T12:40:48.531Z,71.92
2023-03-14T12:43:14.926Z,71.08
2023-03-14T12:45:42.687Z,71.73
2023-03-14T12:48:10.612Z,72.00
2023-03-14T12:50:37.016Z,69.67
2023-03-14T12:53:03.526Z,70.00
2023-03-14T12:55:29.970Z,66.84
2023-03-14T12:57:56.371Z,67.10
2023-03-14T13:00:22.737Z,66.75
2023-03-14T13:02:49.149Z,68.49
2023-03-14T13:05:15.574Z,69.12
2023-03-14T13:07:41.969Z,70.32
2023-03-14T13:12:39.681Z,70.88
2023-03-14T13:15:06.078Z,72.72
2023-03-14T13:17:36.365Z,71.05
2023-03-14T13:20:03.808Z,73.07
2023-03-14T13:22:30.249Z,73.53
2023-03-14T13:24:56.680Z,74.04
2023-03-14T13:27:23.083Z,70.04
2023-03-14T13:29:49.753Z,75.28
2023-03-14T13:32:16.140Z,75.21
2023-03-14T13:34:42.652Z,76.64
2023-03-14T13:37:09.106Z,76.13
2023-03-14T13:39:35.548Z,78.36
2023-03-14T13:42:01.970Z,79.74
2023-03-14T13:44:28.407Z,79.77
2023-03-14T13:46:54.820Z,76.37
2023-03-14T13:49:21.230Z,76.15
2023-03-14T13:51:47.629Z,72.32
2023-03-14T13:54:14.025Z,70.87
2023-03-14T13:56:41.787Z,71.61
2023-03-14T13:59:08.216Z,70.55
2023-03-14T14:01:34.680Z,72.57
2023-03-14T14:04:01.266Z,70.65
2023-03-14T14:06:27.730Z,69.77
2023-03-14T14:08:54.114Z,70.37
2023-03-14T14:11:20.502Z,71.92
2023-03-14T14:13:47.010Z,73.17
2023-03-14T14:16:13.604Z,69.21
2023-03-14T14:18:40.095Z,71.27
2023-03-14T14:21:06.501Z,71.37
2023-03-14T14:23:32.896Z,72.17
2023-03-14T14:25:59.296Z,71.93
2023-03-14T14:28:25.724Z,71.89
2023-03-14T14:30:52.150Z,71.58
2023-03-14T14:33:18.663Z,72.40
2023-03-14T14:35:45.068Z,71.43
2023-03-14T14:38:11.558Z,71.11
2023-03-14T14:40:37.945Z,71.06
2023-03-14T14:43:04.344Z,72.14
2023-03-14T14:45:30.764Z,72.44
2023-03-14T14:47:57.163Z,72.78
2023-03-14T14:50:23.564Z,74.01
2023-03-14T14:52:49.949Z,73.47
2023-03-14T14:55:16.352Z,76.04
2023-03-14T14:57:42.740Z,75.08
2023-03-14T15:00:09.116Z,78.63
2023-03-14T15:02:35.534Z,84.11
2023-03-14T15:05:01.969Z,83.99
2023-03-14T15:07:28.439Z,80.39
2023-03-14T15:09:54.862Z,83.78
2023-03-14T15:12:21.287Z,86.97
2023-03-14T15:14:47.717Z,87.67
2023-03-14T15:17:14.123Z,87.50
2023-03-14T15:19:40.547Z,86.56
2023-03-14T15:22:06.969Z,83.49
2023-03-14T15:24:33.404Z,82.75
2023-03-14T15:26:59.803Z,81.67
2023-03-14T15:29:26.196Z,86.61
2023-03-14T15:31:52.668Z,85.46
2023-03-14T15:34:19.175Z,83.80
2023-03-14T15:36:45.626Z,85.93
2023-03-14T15:39:12.035Z,85.53
2023-03-14T15:41:38.441Z,86.47
2023-03-14T15:44:04.860Z,84.98
2023-03-14T15:46:31.472Z,85.14
2023-03-14T15:48:57.894Z,84.80
2023-03-14T15:51:24.293Z,83.62
2023-03-14T15:53:50.721Z,86.98
2023-03-14T15:56:17.125Z,86.03
2023-03-14T15:58:43.730Z,86.57
2023-03-14T16:01:10.173Z,88.05
2023-03-14T16:03:36.587Z,88.00
2023-03-14T16:06:02.977Z,85.61
2023-03-14T16:08:29.398Z,85.17
2023-03-14T16:10:55.806Z,84.79
2023-03-14T16:13:22.251Z,84.32
2023-03-14T16:15:48.651Z,84.73
2023-03-14T16:18:21.532Z,85.50
2023-03-14T16:20:49.336Z,81.11
2023-03-14T16:23:17.056Z,82.13
2023-03-14T16:25:43.447Z,80.78
2023-03-14T16:28:11.463Z,83.53
2023-03-14T16:30:38.084Z,81.92
2023-03-14T16:33:06.218Z,80.88
2023-03-14T16:35:34.254Z,83.29
2023-03-14T16:38:00.662Z,83.92
2023-03-14T16:40:27.095Z,85.65
2023-03-14T16:43:14.569Z,85.46
2023-03-14T16:45:40.001Z,87.31
2023-03-14T16:48:06.474Z,86.48
2023-03-14T16:50:32.878Z,85.71
2023-03-14T16:52:59.288Z,86.72
2023-03-14T16:55:25.696Z,86.75
2023-03-14T16:57:52.109Z,87.34
2023-03-14T17:00:18.544Z,88.86
2023-03-14T17:02:44.927Z,89.65
2023-03-14T17:05:11.350Z,89.40
2023-03-14T17:07:37.754Z,88.66
2023-03-14T17:10:04.167Z,88.44
2023-03-14T17:12:30.581Z,88.37
2023-03-14T17:14:56.967Z,89.95
2023-03-14T17:17:23.377Z,89.73
2023-03-14T17:19:49.809Z,88.06
2023-03-14T17:22:23.962Z,86.61
2023-03-14T17:24:51.078Z,86.50
2023-03-14T17:27:17.491Z,81.81
2023-03-14T17:29:44.232Z,80.53
2023-03-14T17:32:10.677Z,82.39
2023-03-14T17:34:37.071Z,84.71
2023-03-14T17:37:03.483Z,82.89
2023-03-14T17:39:29.997Z,80.20
2023-03-14T17:41:56.400Z,80.94
2023-03-14T17:44:22.793Z,79.58
2023-03-14T17:46:49.288Z,80.02
2023-03-14T17:49:15.711Z,80.12
2023-03-14T17:51:42.158Z,80.83
2023-03-14T17:54:08.587Z,82.60
2023-03-14T17:56:35.026Z,81.21
2023-03-14T17:59:01.438Z,81.83
2023-03-14T18:01:27.996Z,85.99
2023-03-14T18:03:54.519Z,86.07
2023-03-14T18:06:20.953Z,85.06
2023-03-14T18:08:47.454Z,86.01
2023-03-14T18:11:13.944Z,85.14
2023-03-14T18:13:40.343Z,85.02
2023-03-14T18:16:06.728Z,86.35
2023-03-14T18:18:33.159Z,85.35
2023-03-14T18:20:59.548Z,85.61
2023-03-14T18:23:25.949Z,85.29
2023-03-14T18:25:52.346Z,82.63
2023-03-14T18:28:18.750Z,85.50
2023-03-14T18:30:45.134Z,85.71
2023-03-14T18:33:11.527Z,86.12
2023-03-14T18:35:38.023Z,85.19
2023-03-14T18:38:04.510Z,84.84
2023-03-14T18:40:30.935Z,84.77
2023-03-14T18:42:57.403Z,84.23
2023-03-14T18:45:23.783Z,83.42
2023-03-14T18:47:50.242Z,84.20
2023-03-14T18:50:16.676Z,83.43
2023-03-14T18:52:43.095Z,82.07
2023-03-14T18:55:09.515Z,83.92
2023-03-14T18:57:35.909Z,83.42
2023-03-14T19:00:02.325Z,82.86
2023-03-14T19:02:28.794Z,83.67
2023-03-14T19:04:55.259Z,83.10
2023-03-14T19:07:21.667Z,81.97
2023-03-14T19:09:48.045Z,81.67
2023-03-14T19:12:14.443Z,82.06
2023-03-14T19:14:40.965Z,81.82
2023-03-14T19:17:07.336Z,83.62
2023-03-14T19:19:33.735Z,84.04
2023-03-14T19:22:00.159Z,82.86
2023-03-14T19:24:26.582Z,82.03
2023-03-14T19:26:54.767Z,82.20
2023-03-14T19:29:21.258Z,83.62
2023-03-14T19:31:47.685Z,83.31
2023-03-14T19:34:14.146Z,82.97
2023-03-14T19:36:40.536Z,82.67
2023-03-14T19:39:06.961Z,81.91
2023-03-14T19:41:33.360Z,82.16
2023-03-14T19:43:59.775Z,82.52
2023-03-14T19:46:26.251Z,82.95
2023-03-14T19:48:52.715Z,81.83
2023-03-14T19:51:19.111Z,79.92
2023-03-14T19:53:45.537Z,79.85
2023-03-14T19:56:11.922Z,81.92
2023-03-14T19:58:38.330Z,79.84
2023-03-14T20:01:04.769Z,78.66
2023-03-14T20:03:31.173Z,77.70
2023-03-14T20:05:57.599Z,76.88
2023-03-14T20:08:24.023Z,77.64
2023-03-14T20:10:50.464Z,80.41
2023-03-14T20:13:21.713Z,78.29
2023-03-14T20:15:48.875Z,76.90
2023-03-14T20:18:15.322Z,77.48
2023-03-14T20:20:41.786Z,77.38
2023-03-14T20:23:08.211Z,78.10
2023-03-14T20:25:34.655Z,77.26
2023-03-14T20:28:01.070Z,77.90
2023-03-14T20:30:27.483Z,77.63
2023-03-14T20:32:53.916Z,78.24
2023-03-14T20:35:20.526Z,79.40
2023-03-14T20:37:46.910Z,77.98
2023-03-14T20:40:13.329Z,78.26
2023-03-14T20:42:39.767Z,76.97
2023-03-14T20:45:06.167Z,77.50
2023-03-14T20:47:32.573Z,78.75
2023-03-14T20:49:59.021Z,77.32
2023-03-14T20:52:25.429Z,75.72
2023-03-14T20:54:51.811Z,76.74
2023-03-14T20:57:18.230Z,75.85
2023-03-14T20:59:44.659Z,75.53
2023-03-14T21:02:11.083Z,75.79
2023-03-14T21:04:37.587Z,75.69
2023-03-14T21:07:04.098Z,75.69
2023-03-14T21:09:30.515Z,76.30
2023-03-14T21:11:56.902Z,76.77
2023-03-14T21:14:23.304Z,75.71
2023-03-14T21:16:49.738Z,76.86
2023-03-14T21:19:16.147Z,76.34
2023-03-14T21:21:42.554Z,75.96
2023-03-14T21:24:08.933Z,75.91
2023-03-14T21:26:35.358Z,75.75
2023-03-14T21:29:01.806Z,75.88
2023-03-14T21:31:28.441Z,77.20
2023-03-14T21:33:54.855Z,80.33
2023-03-14T21:36:21.264Z,80.20
2023-03-14T21:38:47.662Z,84.58
2023-03-14T21:41:14.084Z,87.74
2023-03-14T21:43:40.803Z,89.16
2023-03-14T21:46:07.183Z,88.84
2023-03-14T21:48:33.604Z,90.70
2023-03-14T21:50:59.991Z,90.82
2023-03-14T21:53:26.415Z,90.17
2023-03-14T21:55:52.815Z,89.11
2023-03-14T21:58:19.235Z,87.17
2023-03-14T22:00:45.697Z,89.25
2023-03-14T22:03:13.617Z,85.99
2023-03-14T22:05:40.274Z,85.76
2023-03-14T22:08:06.817Z,82.91
2023-03-14T22:10:33.234Z,84.51
2023-03-14T22:12:59.612Z,85.33
2023-03-14T22:15:26.031Z,85.51
2023-03-14T22:17:52.420Z,88.53
2023-03-14T22:20:18.807Z,90.17
2023-03-14T22:22:45.215Z,90.18
2023-03-14T22:25:11.609Z,90.71
2023-03-14T22:27:38.080Z,90.63
2023-03-14T22:30:04.506Z,90.50
2023-03-14T22:32:31.859Z,90.17
2023-03-14T22:34:58.273Z,90.03
2023-03-14T22:37:24.674Z,89.56
2023-03-14T22:39:51.089Z,90.86
2023-03-14T22:42:17.481Z,90.77
2023-03-14T22:44:43.975Z,90.99
2023-03-14T22:47:10.419Z,91.63
2023-03-14T22:49:36.812Z,89.58
2023-03-14T22:52:03.210Z,91.30
2023-03-14T22:54:29.580Z,91.84
2023-03-14T22:56:56.838Z,91.12
2023-03-14T22:59:23.307Z,91.08
2023-03-14T23:01:49.963Z,89.85
2023-03-14T23:04:16.384Z,91.29
2023-03-14T23:06:43.169Z,90.71
2023-03-14T23:09:10.744Z,91.15
2023-03-14T23:11:39.338Z,91.08
2023-03-14T23:14:05.735Z,90.35
2023-03-14T23:16:39.873Z,90.75
2023-03-14T23:19:06.696Z,90.66
2023-03-14T23:21:33.063Z,88.95
2023-03-14T23:23:59.439Z,88.80
2023-03-14T23:26:25.825Z,87.42
2023-03-14T23:28:52.208Z,87.87
2023-03-14T23:31:18.637Z,85.45
2023-03-14T23:33:45.034Z,85.97
2023-03-14T23:36:11.447Z,88.47
2023-03-14T23:38:37.836Z,87.93
2023-03-14T23:41:04.250Z,87.77
2023-03-14T23:43:30.622Z,88.02
2023-03-14T23:45:57.090Z,85.19
2023-03-14T23:48:23.511Z,88.01
2023-03-14T23:50:49.893Z,88.68
2023-03-14T23:53:16.287Z,89.71
2023-03-14T23:55:42.722Z,89.98
2023-03-14T23:58:09.101Z,87.79
